Time;durP1;ratioP1;P1;durP2;ratioP2;P2;SDS_P1;SDS_P2;PMS_P1;PMS_P2;Temp;Humidity;BMP_temperature;BMP_pressure;BME280_temperature;BME280_humidity;BME280_pressure;Samples;Min_cycle;Max_cycle;Signal;HPM_P1;HPM_P2
2023/05/13 00:00:03;;;;;;;;;7.00;6.00;;;;;14.05;88.54;98998.94;5014416;28;45459;-83
2023/05/13 00:02:28;;;;;;;;;5.00;5.00;;;;;14.05;88.18;98986.56;5033456;28;45460;-83
2023/05/13 00:04:54;;;;;;;;;4.00;3.50;;;;;14.07;87.62;98984.66;5041452;28;45572;-83
2023/05/13 00:07:19;;;;;;;;;3.00;3.00;;;;;14.08;87.94;98990.78;5041527;28;45296;-82
2023/05/13 00:09:45;;;;;;;;;3.00;3.00;;;;;14.09;87.48;98992.50;5034968;28;45346;-83
2023/05/13 00:12:10;;;;;;;;;3.00;2.50;;;;;14.12;87.26;98992.34;5038681;28;45642;-83
2023/05/13 00:14:35;;;;;;;;;3.50;2.50;;;;;14.10;87.35;98996.88;5026364;28;45362;-83
2023/05/13 00:17:03;;;;;;;;;5.00;3.75;;;;;14.14;86.86;99001.06;5022347;28;45389;-83
2023/05/13 00:19:29;;;;;;;;;5.00;5.00;;;;;14.15;87.07;99003.63;5027428;28;45369;-83
2023/05/13 00:21:54;;;;;;;;;3.75;3.75;;;;;14.13;86.54;98994.06;5037445;28;46322;-83
2023/05/13 00:24:20;;;;;;;;;3.00;3.00;;;;;14.13;86.15;98996.69;5055838;28;45345;-83
2023/05/13 00:26:46;;;;;;;;;3.00;3.00;;;;;14.11;85.58;98995.94;5047585;28;45359;-83
2023/05/13 00:29:11;;;;;;;;;3.75;3.25;;;;;14.06;85.39;98988.25;5055786;28;45492;-83
2023/05/13 00:31:36;;;;;;;;;3.00;2.00;;;;;14.06;85.19;98988.25;5041617;28;46352;-83
2023/05/13 00:34:03;;;;;;;;;3.75;3.75;;;;;14.08;85.57;98996.09;5055948;28;45392;-83
2023/05/13 00:36:28;;;;;;;;;3.20;3.20;;;;;14.04;85.38;98992.78;5046707;28;45420;-83
2023/05/13 00:38:54;;;;;;;;;3.00;3.00;;;;;14.06;85.37;98988.25;5029448;28;45338;-84
2023/05/13 00:41:20;;;;;;;;;2.00;2.00;;;;;14.05;84.40;98986.56;5041660;28;45589;-83
2023/05/13 00:43:46;;;;;;;;;1.00;1.00;;;;;14.05;83.83;98991.84;5035407;28;45423;-83
2023/05/13 00:46:11;;;;;;;;;1.50;1.50;;;;;14.03;83.60;98993.72;5048751;28;45334;-83
2023/05/13 00:48:37;;;;;;;;;2.25;2.25;;;;;14.02;83.30;98988.50;5054520;28;45262;-83
2023/05/13 00:51:03;;;;;;;;;2.00;2.00;;;;;14.01;83.62;98992.09;5047863;28;45475;-84
2023/05/13 00:53:31;;;;;;;;;2.00;2.00;;;;;14.00;83.86;98991.25;5029869;28;45504;-83
2023/05/13 00:55:57;;;;;;;;;1.60;1.60;;;;;13.97;83.03;98986.97;5035505;28;45516;-83
2023/05/13 00:58:22;;;;;;;;;2.25;2.00;;;;;14.00;83.52;98988.59;5019278;28;45642;-83
2023/05/13 01:01:25;;;;;;;;;1.75;1.75;;;;;14.03;83.20;98988.44;5041532;28;45399;-83
2023/05/13 01:04:07;;;;;;;;;2.00;2.00;;;;;14.06;83.01;98987.41;5024248;28;45517;-83
2023/05/13 01:06:44;;;;;;;;;3.20;2.40;;;;;14.06;82.17;98988.25;5035242;28;45378;-83
2023/05/13 01:09:44;;;;;;;;;2.50;2.00;;;;;14.04;81.42;98987.50;5037144;28;45488;-83
2023/05/13 01:12:17;;;;;;;;;2.20;2.20;;;;;14.00;81.63;98991.25;4998628;28;47806;-83
2023/05/13 01:14:53;;;;;;;;;1.60;1.60;;;;;13.97;82.07;98996.72;5027158;28;45449;-83
2023/05/13 01:17:24;;;;;;;;;2.00;2.00;;;;;13.94;81.27;98987.13;5031959;28;45305;-83
2023/05/13 01:19:59;;;;;;;;;3.00;1.50;;;;;13.97;81.90;98986.97;5044647;28;45522;-83
2023/05/13 01:22:24;;;;;;;;;2.40;2.00;;;;;13.95;81.20;98991.50;5024104;28;48342;-82
2023/05/13 01:24:50;;;;;;;;;1.50;1.50;;;;;13.93;81.29;98987.22;5026066;28;45439;-83
2023/05/13 01:27:16;;;;;;;;;2.00;2.00;;;;;13.88;81.29;98998.09;5025966;28;45503;-83
2023/05/13 01:29:42;;;;;;;;;4.00;2.00;;;;;13.86;81.07;98992.03;5040654;28;45401;-83
2023/05/13 01:32:10;;;;;;;;;4.00;2.00;;;;;13.81;81.19;98994.06;5037097;28;45349;-83
2023/05/13 01:34:38;;;;;;;;;3.00;3.00;;;;;13.76;81.54;98995.25;5040724;28;45476;-83
2023/05/13 01:37:04;;;;;;;;;2.00;2.00;;;;;13.73;81.40;98996.28;5039143;28;45342;-83
2023/05/13 01:39:31;;;;;;;;;2.00;2.00;;;;;13.73;82.14;98998.09;5037998;28;45528;-83
2023/05/13 01:41:56;;;;;;;;;2.00;2.00;;;;;13.73;82.40;98996.28;5033094;28;47434;-82
2023/05/13 01:44:22;;;;;;;;;2.00;2.00;;;;;13.75;83.53;98988.22;5036471;28;45610;-82
2023/05/13 01:46:49;;;;;;;;;2.00;2.00;;;;;13.77;83.10;98991.66;5027152;28;45412;-82
2023/05/13 01:49:15;;;;;;;;;2.00;2.00;;;;;13.77;83.39;98992.50;5050006;28;45464;-82
2023/05/13 01:51:40;;;;;;;;;2.60;2.00;;;;;13.75;83.33;98991.72;5049161;28;45736;-82
2023/05/13 01:54:06;;;;;;;;;2.50;2.50;;;;;13.73;83.29;98992.78;5035656;28;45340;-83
2023/05/13 01:56:31;;;;;;;;;3.00;3.00;;;;;13.71;82.99;98992.88;5035999;28;45445;-83
2023/05/13 01:58:57;;;;;;;;;1.00;1.00;;;;;13.71;83.01;99000.81;5038728;28;45318;-83
2023/05/13 02:01:22;;;;;;;;;2.75;2.75;;;;;13.67;82.05;98993.97;5019259;28;46096;-83
2023/05/13 02:03:48;;;;;;;;;2.00;2.00;;;;;13.66;82.77;99002.00;5048668;28;45441;-83
2023/05/13 02:06:13;;;;;;;;;1.00;0.00;;;;;13.63;82.08;99006.53;5033007;28;45394;-82
2023/05/13 02:08:39;;;;;;;;;2.00;2.00;;;;;13.63;82.56;99003.00;5018188;28;45719;-82
2023/05/13 02:11:04;;;;;;;;;3.25;3.25;;;;;13.60;83.03;99001.38;5016694;28;45403;-83
2023/05/13 02:13:29;;;;;;;;;2.50;2.00;;;;;13.59;83.46;99004.09;5038567;28;45473;-82
2023/05/13 02:15:55;;;;;;;;;1.50;1.50;;;;;13.56;83.41;99002.50;5026217;28;45490;-82
2023/05/13 02:18:21;;;;;;;;;3.75;3.00;;;;;13.56;83.41;99005.16;5041975;28;45407;-82
2023/05/13 02:20:47;;;;;;;;;1.75;1.75;;;;;13.53;83.09;99000.03;5044731;28;46408;-82
2023/05/13 02:23:13;;;;;;;;;2.00;2.00;;;;;13.52;82.99;99008.03;5044646;28;45501;-82
2023/05/13 02:25:40;;;;;;;;;3.00;3.00;;;;;13.52;83.25;99008.03;5045420;28;45456;-82
2023/05/13 02:28:06;;;;;;;;;4.00;3.00;;;;;13.51;83.21;99017.78;5044317;28;45564;-82
2023/05/13 02:30:31;;;;;;;;;3.25;3.25;;;;;13.51;82.88;99015.13;5045543;28;45392;-82
2023/05/13 02:32:57;;;;;;;;;3.25;2.00;;;;;13.50;82.91;99013.41;5042472;28;45447;-82
2023/05/13 02:35:24;;;;;;;;;2.25;2.00;;;;;13.51;82.69;99008.97;5042163;28;45439;-82
2023/05/13 02:37:49;;;;;;;;;2.25;2.25;;;;;13.50;83.10;99013.41;5023892;28;45626;-82
2023/05/13 02:40:15;;;;;;;;;4.00;2.00;;;;;13.50;83.19;99013.41;5017038;28;47150;-82
2023/05/13 02:42:42;;;;;;;;;3.00;1.75;;;;;13.50;82.58;99010.78;5044622;28;45321;-82
2023/05/13 02:45:08;;;;;;;;;0.00;0.00;;;;;13.51;82.60;99019.56;5019846;28;45341;-83
2023/05/13 02:47:33;;;;;;;;;3.00;2.00;;;;;13.50;83.08;99013.41;5029226;28;45298;-82
2023/05/13 02:49:59;;;;;;;;;2.00;2.00;;;;;13.50;83.52;99013.41;5034286;28;46361;-82
2023/05/13 02:52:24;;;;;;;;;2.00;2.00;;;;;13.48;83.37;99015.28;5028665;28;45732;-82
2023/05/13 02:54:50;;;;;;;;;2.00;1.00;;;;;13.49;83.27;99014.34;5052087;28;45384;-83
2023/05/13 02:57:15;;;;;;;;;1.25;1.25;;;;;13.47;82.75;99021.53;5033199;28;45409;-85
2023/05/13 02:59:40;;;;;;;;;1.50;1.50;;;;;13.46;83.01;99022.47;5036679;28;46422;-83
2023/05/13 03:02:06;;;;;;;;;1.00;1.00;;;;;13.44;82.40;99018.19;5036661;28;45283;-83
2023/05/13 03:04:31;;;;;;;;;1.25;1.25;;;;;13.43;82.79;99024.41;5018721;28;45609;-83
2023/05/13 03:06:57;;;;;;;;;1.25;1.25;;;;;13.42;82.54;99028.00;5037072;28;45347;-83
2023/05/13 03:09:22;;;;;;;;;1.00;1.00;;;;;13.39;82.71;99029.03;5005456;28;47076;-83
2023/05/13 03:11:48;;;;;;;;;2.00;2.00;;;;;13.40;82.82;99036.06;5020196;28;45537;-83
2023/05/13 03:14:13;;;;;;;;;1.75;1.75;;;;;13.36;82.75;99026.56;5022841;28;45252;-83
2023/05/13 03:16:39;;;;;;;;;2.00;2.00;;;;;13.33;82.79;99031.16;5034804;28;45483;-83
2023/05/13 03:19:04;;;;;;;;;2.25;2.00;;;;;13.32;82.44;99035.59;5049338;28;46364;-82
2023/05/13 03:21:30;;;;;;;;;1.50;1.50;;;;;13.30;82.06;99024.22;5038301;28;45458;-82
2023/05/13 03:23:55;;;;;;;;;1.50;1.50;;;;;13.27;82.31;99032.31;5019577;28;45331;-83
2023/05/13 03:26:21;;;;;;;;;2.00;1.50;;;;;13.27;82.00;99032.31;5021293;28;45627;-83
2023/05/13 03:28:46;;;;;;;;;3.00;1.00;;;;;13.25;81.68;99036.81;5041886;28;46243;-83
2023/05/13 03:31:12;;;;;;;;;1.00;1.00;;;;;13.23;81.85;99025.50;5028829;28;45379;-83
2023/05/13 03:33:37;;;;;;;;;2.00;2.00;;;;;13.23;82.15;99036.06;5036331;28;45503;-81
2023/05/13 03:36:03;;;;;;;;;2.00;2.00;;;;;13.21;82.32;99033.50;5043660;28;45299;-81
2023/05/13 03:38:29;;;;;;;;;2.50;2.50;;;;;13.22;82.35;99031.72;5046658;28;47518;-84
2023/05/13 03:40:54;;;;;;;;;2.25;1.75;;;;;13.19;82.28;99032.72;5018917;28;45498;-81
2023/05/13 03:43:19;;;;;;;;;2.75;2.00;;;;;13.15;81.92;99032.97;5053520;28;45308;-83
2023/05/13 03:45:47;;;;;;;;;2.00;2.00;;;;;13.12;82.12;99031.28;5032649;28;45604;-84
2023/05/13 03:48:12;;;;;;;;;1.00;1.00;;;;;13.13;82.54;99034.78;5055755;28;48620;-84
2023/05/13 03:50:38;;;;;;;;;1.00;1.00;;;;;13.11;82.12;99037.50;5052319;28;45334;-81
2023/05/13 03:53:03;;;;;;;;;2.00;2.00;;;;;13.08;81.74;99039.47;5043494;28;45366;-81
2023/05/13 03:55:29;;;;;;;;;1.00;1.00;;;;;13.05;81.52;99037.00;5034677;28;45507;-82
2023/05/13 03:57:54;;;;;;;;;2.00;2.00;;;;;13.03;81.91;99031.78;5048188;28;45519;-82
2023/05/13 04:00:20;;;;;;;;;1.00;1.00;;;;;13.05;82.26;99044.94;5042957;28;45417;-82
2023/05/13 04:02:45;;;;;;;;;2.00;1.00;;;;;13.05;82.20;99045.78;5039725;28;45432;-84
2023/05/13 04:05:12;;;;;;;;;2.50;2.00;;;;;13.04;82.04;99045.88;5043326;28;45525;-81
2023/05/13 04:07:38;;;;;;;;;1.40;1.40;;;;;13.06;82.01;99044.84;5043258;28;45503;-81
2023/05/13 04:10:04;;;;;;;;;1.00;1.00;;;;;13.06;82.33;99042.22;5044519;28;45492;-82
2023/05/13 04:12:30;;;;;;;;;1.50;1.50;;;;;13.04;81.52;99049.38;5027866;28;45519;-81
2023/05/13 04:14:55;;;;;;;;;3.75;2.50;;;;;13.02;81.57;99043.28;5050640;28;45366;-84
2023/05/13 04:17:20;;;;;;;;;2.50;1.50;;;;;13.03;81.35;99050.31;5043933;28;45713;-81
2023/05/13 04:19:46;;;;;;;;;1.25;1.25;;;;;13.04;81.70;99053.81;5044886;28;45442;-81
2023/05/13 04:22:11;;;;;;;;;1.00;1.00;;;;;13.02;81.61;99051.22;5050346;28;45294;-80
2023/05/13 04:24:36;;;;;;;;;1.00;1.00;;;;;13.01;81.13;99056.59;5026622;28;45397;-83
2023/05/13 04:27:02;;;;;;;;;1.75;1.75;;;;;12.98;80.94;99054.97;5028178;28;47274;-81
2023/05/13 04:29:27;;;;;;;;;2.00;2.00;;;;;12.96;81.46;99062.13;5044439;28;45457;-82
2023/05/13 04:31:53;;;;;;;;;1.00;1.00;;;;;12.95;81.83;99063.06;5047836;28;45540;-81
2023/05/13 04:34:18;;;;;;;;;2.00;2.00;;;;;12.96;81.65;99063.91;5044752;28;45390;-81
2023/05/13 04:36:45;;;;;;;;;2.00;0.25;;;;;12.97;81.51;99073.56;5048647;28;46070;-83
2023/05/13 04:39:10;;;;;;;;;1.00;1.00;;;;;12.95;81.68;99073.63;5019707;28;45513;-81
2023/05/13 04:41:36;;;;;;;;;1.50;1.50;;;;;12.93;81.96;99079.00;5031045;28;45353;-81
2023/05/13 04:44:05;;;;;;;;;0.25;0.25;;;;;12.91;81.76;99074.72;5045144;28;45480;-81
2023/05/13 04:46:31;;;;;;;;;2.00;2.00;;;;;12.90;82.17;99075.69;5042774;28;46501;-81
2023/05/13 04:48:56;;;;;;;;;2.00;2.00;;;;;12.91;82.60;99074.72;5045041;28;45180;-83
2023/05/13 04:51:22;;;;;;;;;2.50;2.25;;;;;12.96;83.05;99079.78;5050933;28;45299;-83
2023/05/13 04:53:47;;;;;;;;;2.00;2.00;;;;;12.98;83.44;99080.56;5027922;28;45310;-84
2023/05/13 04:56:13;;;;;;;;;2.00;2.00;;;;;12.99;82.51;99088.44;5043076;28;45519;-83
2023/05/13 04:58:38;;;;;;;;;2.00;1.00;;;;;13.02;82.54;99090.06;5037795;28;45282;-84
2023/05/13 05:01:04;;;;;;;;;2.00;2.00;;;;;13.05;81.96;99092.56;5037082;28;45327;-84
2023/05/13 05:03:29;;;;;;;;;0.50;0.50;;;;;13.06;82.18;99086.34;5044060;28;45505;-84
2023/05/13 05:05:54;;;;;;;;;1.50;1.50;;;;;13.09;82.52;99094.09;5041764;28;45359;-82
2023/05/13 05:08:20;;;;;;;;;4.00;2.00;;;;;13.13;82.83;99095.66;5027470;28;45269;-81
2023/05/13 05:10:47;;;;;;;;;2.00;2.00;;;;;13.15;82.26;99086.75;5044573;28;45579;-83
2023/05/13 05:13:13;;;;;;;;;1.75;1.75;;;;;13.17;82.37;99092.84;5019358;28;45472;-82
2023/05/13 05:15:38;;;;;;;;;1.00;1.00;;;;;13.18;82.37;99089.25;5040783;28;46119;-82
2023/05/13 05:18:05;;;;;;;;;2.00;2.00;;;;;13.18;81.26;99096.34;5027937;28;45819;-82
2023/05/13 05:20:31;;;;;;;;;2.00;2.00;;;;;13.16;80.79;99093.75;5036804;28;45551;-82
2023/05/13 05:22:56;;;;;;;;;2.50;2.50;;;;;13.17;80.93;99097.28;5040727;28;45377;-82
2023/05/13 05:25:23;;;;;;;;;1.75;1.75;;;;;13.20;81.40;99099.75;5050835;28;46301;-82
2023/05/13 05:27:49;;;;;;;;;2.00;2.00;;;;;13.23;81.75;99105.75;5042902;28;45430;-84
2023/05/13 05:30:14;;;;;;;;;3.25;3.00;;;;;13.30;81.65;99095.69;5042832;28;45321;-82
2023/05/13 05:32:40;;;;;;;;;2.75;2.00;;;;;13.36;81.30;99108.63;5043050;28;45442;-67
2023/05/13 05:35:06;;;;;;;;;2.50;2.25;;;;;13.43;81.24;99102.06;5045449;28;46233;-68
2023/05/13 05:37:32;;;;;;;;;2.20;2.20;;;;;13.53;80.95;99108.63;5016151;28;45457;-69
2023/05/13 05:39:57;;;;;;;;;2.50;1.75;;;;;13.60;80.38;99112.63;5040084;28;45374;-69
2023/05/13 05:42:23;;;;;;;;;1.00;1.00;;;;;13.66;79.94;99103.53;5031383;28;45506;-71
2023/05/13 05:44:48;;;;;;;;;2.25;2.25;;;;;13.71;80.34;99098.00;5033413;28;45524;-66
2023/05/13 05:47:13;;;;;;;;;2.75;2.75;;;;;13.75;80.30;99107.47;5030752;28;45355;-68
2023/05/13 05:49:39;;;;;;;;;3.00;3.00;;;;;13.79;81.25;99104.56;5044275;28;45680;-68
2023/05/13 05:52:05;;;;;;;;;5.00;3.50;;;;;13.85;81.12;99106.06;5030741;28;45551;-68
2023/05/13 05:54:30;;;;;;;;;2.00;2.00;;;;;13.89;80.86;99103.16;5045568;28;45427;-67
2023/05/13 05:56:55;;;;;;;;;2.00;2.00;;;;;13.95;80.48;99104.59;5038474;28;45335;-69
2023/05/13 05:59:21;;;;;;;;;4.50;3.50;;;;;14.01;80.49;99114.03;5013850;28;45437;-68
2023/05/13 06:01:46;;;;;;;;;3.00;3.00;;;;;14.05;80.54;99111.13;5028306;28;45617;-68
2023/05/13 06:04:11;;;;;;;;;3.00;3.00;;;;;14.09;80.28;99114.44;5032723;28;46586;-68
2023/05/13 06:06:39;;;;;;;;;6.00;4.25;;;;;14.14;79.93;99120.38;5029393;28;45394;-68
2023/05/13 06:09:04;;;;;;;;;5.60;3.80;;;;;14.18;79.68;99116.63;5032713;28;45426;-68
2023/05/13 06:11:30;;;;;;;;;4.75;2.00;;;;;14.20;79.56;99120.91;5009612;28;45453;-68
2023/05/13 06:13:56;;;;;;;;;3.25;3.25;;;;;14.25;79.80;99121.47;5036838;28;46099;-68
2023/05/13 06:16:22;;;;;;;;;3.00;3.00;;;;;14.30;79.71;99123.88;5031279;28;45422;-68
2023/05/13 06:18:47;;;;;;;;;6.00;6.00;;;;;14.37;79.82;99121.78;5035979;28;45393;-67
2023/05/13 06:21:13;;;;;;;;;4.75;4.75;;;;;14.42;79.52;99130.34;5030431;28;45347;-68
2023/05/13 06:23:39;;;;;;;;;4.00;4.00;;;;;14.45;79.77;99127.53;5037778;28;45551;-67
2023/05/13 06:26:04;;;;;;;;;6.00;5.00;;;;;14.49;79.23;99129.06;5028623;28;45536;-67
2023/05/13 06:28:30;;;;;;;;;4.25;4.25;;;;;14.52;78.55;99132.41;5034118;28;45370;-70
2023/05/13 06:30:55;;;;;;;;;4.00;3.00;;;;;14.52;78.66;99131.56;5029896;28;45548;-69
2023/05/13 06:33:20;;;;;;;;;4.00;4.00;;;;;14.50;77.87;99136.09;5036669;28;45409;-74
2023/05/13 06:35:48;;;;;;;;;2.00;2.00;;;;;14.43;77.16;99127.59;5028302;28;45412;-67
2023/05/13 06:38:16;;;;;;;;;2.60;2.60;;;;;14.37;77.07;99137.69;5026607;28;45458;-66
2023/05/13 06:40:42;;;;;;;;;1.50;1.50;;;;;14.35;76.65;99132.47;5012874;28;45493;-67
2023/05/13 06:43:08;;;;;;;;;2.00;2.00;;;;;14.31;76.72;99137.06;5044934;28;45438;-69
2023/05/13 06:45:33;;;;;;;;;2.00;2.00;;;;;14.27;76.58;99132.88;5045370;28;45536;-63
2023/05/13 06:47:58;;;;;;;;;2.00;2.00;;;;;14.24;76.32;99133.03;5040592;28;45669;-65
2023/05/13 06:50:24;;;;;;;;;3.50;3.50;;;;;14.18;76.38;99138.69;5046122;28;45426;-68
2023/05/13 06:52:49;;;;;;;;;3.00;3.00;;;;;14.15;77.00;99141.50;5041037;28;46625;-66
2023/05/13 06:55:18;;;;;;;;;2.25;1.25;;;;;14.16;76.65;99139.72;5047515;28;45350;-63
2023/05/13 06:57:46;;;;;;;;;3.00;3.00;;;;;14.16;76.54;99139.72;5028976;28;45454;-62
2023/05/13 07:00:15;;;;;;;;;7.75;7.75;;;;;14.13;76.82;99145.16;5038805;28;45665;-63
2023/05/13 07:02:41;;;;;;;;;2.80;2.80;;;;;14.12;77.36;99143.47;5030176;28;46770;-61
2023/05/13 07:05:08;;;;;;;;;3.25;3.00;;;;;14.12;77.66;99148.75;5029159;28;45553;-60
2023/05/13 07:07:34;;;;;;;;;6.75;6.75;;;;;14.13;77.58;99138.06;5032632;28;45444;-61
2023/05/13 07:10:00;;;;;;;;;4.00;4.00;;;;;14.14;76.93;99141.59;5032498;28;45422;-60
2023/05/13 07:12:25;;;;;;;;;4.00;4.00;;;;;14.11;76.86;99149.69;5037689;28;45432;-61
2023/05/13 07:14:51;;;;;;;;;3.00;3.00;;;;;14.07;76.73;99149.03;5048305;28;45584;-61
2023/05/13 07:17:16;;;;;;;;;5.50;4.00;;;;;14.07;77.27;99149.03;5036610;28;45413;-61
2023/05/13 07:19:41;;;;;;;;;5.00;5.00;;;;;14.10;77.20;99150.63;5032539;28;45528;-61
2023/05/13 07:22:07;;;;;;;;;3.00;3.00;;;;;14.14;76.75;99145.09;5013590;28;48331;-60
2023/05/13 07:24:32;;;;;;;;;3.50;3.50;;;;;14.15;76.50;99144.16;5040803;28;46029;-66
2023/05/13 07:26:58;;;;;;;;;3.25;3.25;;;;;14.15;76.39;99144.16;5037517;28;45496;-62
2023/05/13 07:29:24;;;;;;;;;3.50;3.50;;;;;14.22;76.17;99148.19;5039236;28;45388;-62
2023/05/13 07:31:49;;;;;;;;;4.25;4.25;;;;;14.34;76.35;99154.63;5036227;28;45469;-62
2023/05/13 07:34:15;;;;;;;;;4.25;4.25;;;;;14.48;76.38;99148.56;5047044;28;45444;-61
2023/05/13 07:36:40;;;;;;;;;3.75;3.75;;;;;14.68;76.40;99153.63;5032470;28;45441;-62
2023/05/13 07:39:07;;;;;;;;;3.50;0.00;;;;;14.90;75.80;99150.63;5037870;28;45486;-62
2023/05/13 07:41:33;;;;;;;;;7.50;5.00;;;;;15.10;75.80;99139.69;5042337;28;45575;-62
2023/05/13 07:43:58;;;;;;;;;3.25;3.25;;;;;15.22;75.08;99143.44;5046327;28;45501;-62
2023/05/13 07:46:23;;;;;;;;;3.00;3.00;;;;;15.28;73.80;99149.25;5039306;28;45449;-62
2023/05/13 07:48:49;;;;;;;;;5.00;5.00;;;;;15.36;74.29;99141.69;5033305;28;45621;-62
2023/05/13 07:51:17;;;;;;;;;5.50;5.50;;;;;15.49;73.94;99136.50;5034481;28;45492;-62
2023/05/13 07:53:44;;;;;;;;;5.00;3.80;;;;;15.55;71.65;99138.81;5036459;28;45421;-63
2023/05/13 07:56:09;;;;;;;;;3.00;3.00;;;;;15.44;72.17;99135.03;5035632;28;45377;-62
2023/05/13 07:58:36;;;;;;;;;6.25;5.50;;;;;15.43;73.15;99141.31;5035686;28;45595;-62
2023/05/13 08:01:02;;;;;;;;;7.75;7.50;;;;;15.48;73.61;99132.13;5034564;28;46449;-63
2023/05/13 08:03:28;;;;;;;;;5.00;5.00;;;;;15.55;73.30;99140.59;5030455;28;45425;-62
2023/05/13 08:05:53;;;;;;;;;5.50;3.25;;;;;15.54;73.18;99136.22;5034771;28;45659;-63
2023/05/13 08:08:18;;;;;;;;;4.00;4.00;;;;;15.53;72.57;99134.50;5032473;28;45547;-63
2023/05/13 08:10:44;;;;;;;;;4.75;4.50;;;;;15.52;72.67;99128.34;5047241;28;45501;-62
2023/05/13 08:13:09;;;;;;;;;2.50;2.50;;;;;15.56;72.73;99135.22;5026271;28;45358;-63
2023/05/13 08:15:35;;;;;;;;;2.50;2.50;;;;;15.56;72.87;99135.22;5038706;28;45429;-62
2023/05/13 08:18:01;;;;;;;;;4.00;3.75;;;;;15.58;72.91;99140.44;5036852;28;45517;-62
2023/05/13 08:20:28;;;;;;;;;4.00;4.00;;;;;15.57;73.70;99141.41;5048755;28;45914;-62
2023/05/13 08:22:57;;;;;;;;;4.00;4.00;;;;;15.55;74.03;99144.13;5037380;28;45487;-62
2023/05/13 08:25:23;;;;;;;;;3.20;3.20;;;;;15.53;73.39;99140.69;5020748;28;45530;-62
2023/05/13 08:27:48;;;;;;;;;4.75;4.75;;;;;15.52;73.52;99144.28;5032840;28;45390;-62
2023/05/13 08:30:14;;;;;;;;;4.00;3.50;;;;;15.44;73.78;99143.00;5038877;28;46162;-63
2023/05/13 08:32:39;;;;;;;;;4.75;4.00;;;;;15.36;74.38;99147.00;5030685;28;45401;-63
2023/05/13 08:35:05;;;;;;;;;4.00;4.00;;;;;15.38;74.38;99148.72;5040170;28;45355;-63
2023/05/13 08:37:31;;;;;;;;;2.00;2.00;;;;;15.37;74.51;99142.53;5032598;28;45475;-63
2023/05/13 08:39:59;;;;;;;;;4.50;3.75;;;;;15.36;74.95;99140.84;5041321;28;45433;-63
2023/05/13 08:42:27;;;;;;;;;3.40;2.60;;;;;15.36;73.42;99143.50;5034885;28;45417;-63
2023/05/13 08:44:53;;;;;;;;;3.00;3.00;;;;;15.33;73.38;99144.53;5039136;28;45368;-62
2023/05/13 08:47:29;;;;;;;;;4.25;4.00;;;;;15.32;73.58;99141.94;5032899;28;45362;-63
2023/05/13 08:49:55;;;;;;;;;4.20;3.60;;;;;15.28;74.14;99135.97;5053169;28;46462;-62
2023/05/13 08:52:21;;;;;;;;;2.40;2.00;;;;;15.30;74.86;99135.88;5030092;28;45429;-63
2023/05/13 08:54:48;;;;;;;;;4.80;3.00;;;;;15.36;74.44;99140.84;5043213;28;45518;-63
2023/05/13 08:57:13;;;;;;;;;4.00;2.60;;;;;15.39;74.60;99138.00;5038498;28;45441;-63
2023/05/13 08:59:39;;;;;;;;;3.50;2.25;;;;;15.47;74.71;99121.59;5033424;28;46599;-61
2023/05/13 09:02:05;;;;;;;;;2.75;2.75;;;;;15.54;75.36;99128.25;5029306;28;45520;-62
2023/05/13 09:04:36;;;;;;;;;5.00;3.50;;;;;15.59;75.78;99137.66;5036371;28;45557;-63
2023/05/13 09:07:03;;;;;;;;;3.50;3.50;;;;;15.62;75.76;99124.19;5017534;28;45503;-63
2023/05/13 09:09:29;;;;;;;;;5.00;5.00;;;;;15.66;76.21;99124.88;5033619;28;45503;-63
2023/05/13 09:11:54;;;;;;;;;3.25;3.00;;;;;15.77;76.05;99117.09;5029035;28;45498;-63
2023/05/13 09:14:20;;;;;;;;;3.25;3.00;;;;;15.86;75.63;99121.88;5041951;28;45385;-63
2023/05/13 09:16:46;;;;;;;;;4.25;2.50;;;;;15.91;75.43;99113.59;5034016;28;45484;-63
2023/05/13 09:19:12;;;;;;;;;3.00;3.00;;;;;15.98;75.33;99107.81;5046732;28;45591;-63
2023/05/13 09:21:38;;;;;;;;;3.00;3.00;;;;;16.09;74.54;99112.44;5035812;28;45311;-63
2023/05/13 09:24:09;;;;;;;;;2.00;2.00;;;;;16.14;72.01;99117.47;5048235;28;45457;-63
2023/05/13 09:26:35;;;;;;;;;2.00;1.80;;;;;16.11;70.94;99099.91;5033446;28;45493;-63
2023/05/13 09:29:28;;;;;;;;;2.00;1.40;;;;;16.07;70.12;99095.75;5029871;28;45370;-63
2023/05/13 09:31:56;;;;;;;;;1.60;1.60;;;;;16.01;70.31;99101.44;5034815;28;45486;-63
2023/05/13 09:34:33;;;;;;;;;1.20;1.20;;;;;15.93;67.70;99103.72;5019897;28;45531;-63
2023/05/13 09:37:07;;;;;;;;;0.80;0.80;;;;;15.93;69.52;99096.59;5011035;28;45497;-62
2023/05/13 09:39:41;;;;;;;;;0.40;0.40;;;;;15.93;67.02;99096.59;5039117;28;45484;-63
2023/05/13 09:42:20;;;;;;;;;1.60;1.60;;;;;15.96;68.21;99101.72;5028011;28;45334;-62
2023/05/13 09:44:46;;;;;;;;;0.20;0.00;;;;;16.01;66.78;99090.81;5042869;28;45388;-62
2023/05/13 09:47:15;;;;;;;;;0.00;0.00;;;;;16.06;63.42;99091.38;5034405;28;45646;-63
2023/05/13 09:49:42;;;;;;;;;0.20;0.20;;;;;16.18;65.40;99105.69;5038507;28;45417;-63
2023/05/13 09:52:10;;;;;;;;;0.80;0.80;;;;;16.30;63.59;99097.78;5033251;28;45340;-63
2023/05/13 09:54:36;;;;;;;;;1.00;1.00;;;;;16.44;62.56;99102.22;5038297;28;45526;-63
2023/05/13 09:57:02;;;;;;;;;0.80;0.80;;;;;16.55;62.22;99102.41;5028203;28;45547;-63
2023/05/13 09:59:32;;;;;;;;;0.00;0.00;;;;;16.63;63.16;99084.16;5041082;28;46563;-63
2023/05/13 10:01:59;;;;;;;;;0.00;0.00;;;;;16.67;60.21;99098.13;5030035;28;45426;-63
2023/05/13 10:04:25;;;;;;;;;0.60;0.60;;;;;16.67;58.08;99108.75;5039470;28;45399;-63
2023/05/13 10:06:50;;;;;;;;;0.25;0.00;;;;;16.69;57.79;99093.53;5030086;28;45316;-63
2023/05/13 10:09:16;;;;;;;;;0.00;0.00;;;;;16.76;57.39;99102.00;5024564;28;46583;-63
2023/05/13 10:11:46;;;;;;;;;0.00;0.00;;;;;16.81;57.75;99107.84;5027903;28;45524;-63
2023/05/13 10:14:12;;;;;;;;;0.00;0.00;;;;;16.88;58.98;99101.19;5045033;28;45379;-63
2023/05/13 10:16:37;;;;;;;;;0.00;0.00;;;;;16.99;57.89;99109.31;5034948;28;45486;-63
2023/05/13 10:19:05;;;;;;;;;0.00;0.00;;;;;17.09;58.48;99081.94;5046129;28;45505;-63
2023/05/13 10:21:31;;;;;;;;;1.60;0.00;;;;;17.20;55.45;99105.22;5036310;28;45417;-62
2023/05/13 10:23:57;;;;;;;;;0.00;0.00;;;;;17.27;56.14;99105.63;5047701;28;45573;-63
2023/05/13 10:26:24;;;;;;;;;0.00;0.00;;;;;17.28;55.53;99089.53;5037321;28;45457;-63
2023/05/13 10:28:49;;;;;;;;;0.00;0.00;;;;;17.31;55.30;99120.47;5048137;28;45541;-63
2023/05/13 10:31:16;;;;;;;;;0.00;0.00;;;;;17.26;56.00;99107.44;5017835;28;45459;-63
2023/05/13 10:33:42;;;;;;;;;0.00;0.00;;;;;17.23;56.37;99107.69;5037943;28;45311;-64
2023/05/13 10:36:38;;;;;;;;;0.00;0.00;;;;;17.25;56.77;99089.78;5042584;28;45422;-63
2023/05/13 10:39:33;;;;;;;;;0.00;0.00;;;;;17.28;55.93;99100.19;5039162;28;46225;-63
2023/05/13 10:42:17;;;;;;;;;0.00;0.00;;;;;17.28;54.19;99094.88;5028763;28;45476;-63
2023/05/13 10:44:42;;;;;;;;;0.00;0.00;;;;;17.30;56.89;99095.63;5049007;28;45302;-63
2023/05/13 10:47:08;;;;;;;;;0.00;0.00;;;;;17.34;54.67;99131.78;5038681;28;45506;-62
2023/05/13 10:49:35;;;;;;;;;0.00;0.00;;;;;17.34;54.56;99099.81;5049788;28;45503;-63
2023/05/13 10:52:08;;;;;;;;;0.00;0.00;;;;;17.33;55.44;99118.56;5012392;28;45386;-62
2023/05/13 10:54:40;;;;;;;;;1.00;0.00;;;;;17.36;54.85;99094.38;5038045;28;45536;-63
2023/05/13 10:57:07;;;;;;;;;0.00;0.00;;;;;17.35;54.81;99090.84;5030192;28;45561;-63
2023/05/13 10:59:34;;;;;;;;;0.00;0.00;;;;;17.36;54.89;99087.22;5040444;28;47285;-62
2023/05/13 11:02:02;;;;;;;;;0.00;0.00;;;;;17.33;55.39;99095.44;5014097;28;45521;-61
2023/05/13 11:04:27;;;;;;;;;0.00;0.00;;;;;17.31;55.53;99112.47;5035012;28;45381;-62
2023/05/13 11:06:53;;;;;;;;;0.00;0.00;;;;;17.26;55.41;99083.47;5025545;28;45578;-62
2023/05/13 11:09:21;;;;;;;;;0.00;0.00;;;;;17.26;56.25;99091.44;5039093;28;46662;-62
2023/05/13 11:11:51;;;;;;;;;0.00;0.00;;;;;17.20;56.22;99078.56;5010805;28;45354;-64
2023/05/13 11:14:18;;;;;;;;;0.00;0.00;;;;;17.16;56.87;99078.88;5043819;28;45501;-62
2023/05/13 11:17:03;;;;;;;;;0.00;0.00;;;;;17.14;56.99;99070.13;5036063;28;45493;-63
2023/05/13 11:19:50;;;;;;;;;0.00;0.00;;;;;17.18;57.79;99088.47;5041050;28;45460;-62
2023/05/13 11:22:20;;;;;;;;;0.00;0.00;;;;;17.24;57.47;99081.88;5032297;28;45468;-63
2023/05/13 11:25:07;;;;;;;;;0.00;0.00;;;;;17.29;57.43;99082.41;5033900;28;45515;-63
2023/05/13 11:27:37;;;;;;;;;0.00;0.00;;;;;17.38;56.44;99063.13;5037342;28;45498;-63
2023/05/13 11:30:06;;;;;;;;;0.00;0.00;;;;;17.43;56.22;99067.16;5046388;28;45514;-63
2023/05/13 11:32:53;;;;;;;;;1.00;1.00;;;;;17.42;55.92;99051.31;5031145;28;45509;-63